Time;durP1;ratioP1;P1;durP2;ratioP2;P2;SDS_P1;SDS_P2;PMS_P1;PMS_P2;Temp;Humidity;BMP_temperature;BMP_pressure;BME280_temperature;BME280_humidity;BME280_pressure;Samples;Min_cycle;Max_cycle;Signal;HPM_P1;HPM_P2
2023/01/29 00:00:10;;;;;;;7.72;3.03;;;;;;;;;;4948633;28;92769;-82
2023/01/29 00:02:39;;;;;;;8.63;3.17;;;;;;;;;;4951241;28;93942;-82
2023/01/29 00:05:06;;;;;;;7.25;3.00;;;;;;;;;;4956093;28;93576;-81
2023/01/29 00:07:52;;;;;;;8.43;3.10;;;;;;;;;;4945960;28;92264;-82
2023/01/29 00:10:19;;;;;;;7.28;2.70;;;;;;;;;;4944412;28;93128;-82
2023/01/29 00:12:45;;;;;;;6.82;2.95;;;;;;;;;;4947743;28;92710;-82
2023/01/29 00:15:11;;;;;;;7.68;2.72;;;;;;;;;;4949647;28;97290;-81
2023/01/29 00:17:38;;;;;;;6.57;2.85;;;;;;;;;;4953109;28;92851;-82
2023/01/29 00:20:04;;;;;;;7.72;2.90;;;;;;;;;;4947858;28;92519;-81
2023/01/29 00:22:31;;;;;;;6.28;2.72;;;;;;;;;;4947219;28;93750;-82
2023/01/29 00:24:58;;;;;;;6.50;2.67;;;;;;;;;;4946555;28;92499;-82
2023/01/29 00:27:24;;;;;;;8.80;3.05;;;;;;;;;;4950511;28;93233;-82
2023/01/29 00:30:07;;;;;;;6.30;2.90;;;;;;;;;;4947870;28;92405;-82
2023/01/29 00:32:34;;;;;;;7.60;3.03;;;;;;;;;;4949372;28;98272;-81
2023/01/29 00:35:01;;;;;;;6.43;2.47;;;;;;;;;;4948323;28;93383;-82
2023/01/29 00:37:27;;;;;;;6.78;2.70;;;;;;;;;;4943759;28;92957;-82
2023/01/29 00:39:54;;;;;;;6.50;2.92;;;;;;;;;;4929226;28;94839;-80
2023/01/29 00:45:06;;;;;;;7.05;2.75;;;;;;;;;;4947998;28;92636;-79
2023/01/29 00:47:32;;;;;;;8.30;2.65;;;;;;;;;;4932570;28;93411;-79
2023/01/29 00:49:59;;;;;;;6.32;2.95;;;;;;;;;;4947372;28;95299;-78
2023/01/29 00:52:26;;;;;;;8.80;2.83;;;;;;;;;;4936541;28;95718;-80
2023/01/29 00:54:54;;;;;;;6.63;2.60;;;;;;;;;;4941307;28;95836;-79
2023/01/29 00:57:20;;;;;;;5.53;2.60;;;;;;;;;;4950030;28;92060;-80
2023/01/29 00:59:47;;;;;;;5.35;2.50;;;;;;;;;;4948048;28;92781;-79
2023/01/29 01:05:01;;;;;;;7.18;2.50;;;;;;;;;;4929106;28;95362;-79
2023/01/29 01:07:28;;;;;;;5.53;2.42;;;;;;;;;;4934437;28;95064;-79
2023/01/29 01:12:40;;;;;;;;;;;;;;;;;;4946320;28;92812;-79
2023/01/29 01:15:07;;;;;;;6.75;2.30;;;;;;;;;;4909401;28;111509;-79
2023/01/29 01:17:33;;;;;;;6.65;2.50;;;;;;;;;;4934159;28;93085;-81
2023/01/29 01:20:00;;;;;;;4.97;2.53;;;;;;;;;;4943953;28;95281;-80
2023/01/29 01:22:26;;;;;;;6.78;2.20;;;;;;;;;;4948348;28;92106;-79
2023/01/29 01:24:53;;;;;;;9.32;2.55;;;;;;;;;;4948626;28;93294;-80
2023/01/29 01:27:19;;;;;;;13.15;2.80;;;;;;;;;;4949837;28;94260;-78
2023/01/29 01:29:46;;;;;;;10.90;4.13;;;;;;;;;;4946388;28;98402;-80
2023/01/29 01:32:15;;;;;;;13.27;4.95;;;;;;;;;;4936054;28;92475;-81
2023/01/29 01:34:44;;;;;;;16.65;5.53;;;;;;;;;;4945831;28;95703;-80
2023/01/29 01:37:12;;;;;;;14.00;6.45;;;;;;;;;;4941824;28;92843;-80
2023/01/29 01:39:38;;;;;;;12.18;6.25;;;;;;;;;;4929393;28;94790;-80
2023/01/29 01:42:10;;;;;;;12.90;6.65;;;;;;;;;;4928372;28;95830;-81
2023/01/29 01:44:54;;;;;;;11.98;6.45;;;;;;;;;;4931004;28;93006;-81
2023/01/29 01:47:26;;;;;;;12.50;6.82;;;;;;;;;;4930314;28;91678;-79
2023/01/29 01:49:54;;;;;;;11.68;5.75;;;;;;;;;;4918567;28;92973;-79
2023/01/29 01:52:21;;;;;;;13.95;6.40;;;;;;;;;;4929064;28;92522;-79
2023/01/29 01:54:48;;;;;;;21.33;7.10;;;;;;;;;;4929858;28;94832;-79
2023/01/29 01:57:17;;;;;;;13.98;7.38;;;;;;;;;;4928366;28;92947;-79
2023/01/29 01:59:49;;;;;;;11.88;6.50;;;;;;;;;;4927117;28;92729;-79
2023/01/29 02:10:44;;;;;;;12.05;6.95;;;;;;;;;;4927692;28;100127;-79
2023/01/29 02:13:11;;;;;;;12.13;6.47;;;;;;;;;;4925151;28;91718;-80
2023/01/29 02:15:47;;;;;;;14.05;7.15;;;;;;;;;;4928164;28;92796;-80
2023/01/29 02:18:15;;;;;;;13.52;7.32;;;;;;;;;;4930159;28;92821;-80
2023/01/29 02:20:46;;;;;;;13.13;6.68;;;;;;;;;;4926994;28;95207;-80
2023/01/29 02:23:32;;;;;;;13.80;7.28;;;;;;;;;;4927467;28;96290;-80
2023/01/29 02:26:21;;;;;;;11.55;6.47;;;;;;;;;;4927045;28;93125;-80
2023/01/29 02:28:53;;;;;;;12.32;6.47;;;;;;;;;;4909918;28;96134;-80
2023/01/29 02:31:26;;;;;;;14.20;7.28;;;;;;;;;;4936096;28;94414;-81
2023/01/29 02:34:16;;;;;;;13.45;7.13;;;;;;;;;;4927640;28;92590;-80
2023/01/29 02:36:50;;;;;;;12.88;6.93;;;;;;;;;;4939784;28;99299;-79
2023/01/29 02:39:22;;;;;;;13.52;7.53;;;;;;;;;;4953641;28;94904;-81
2023/01/29 02:41:55;;;;;;;11.88;6.65;;;;;;;;;;4942078;28;92469;-80
2023/01/29 02:44:40;;;;;;;11.50;6.85;;;;;;;;;;4939444;28;95247;-80
2023/01/29 02:47:16;;;;;;;12.50;7.10;;;;;;;;;;4955981;28;95196;-80
2023/01/29 02:49:45;;;;;;;13.10;6.63;;;;;;;;;;4942654;28;95851;-81
2023/01/29 02:52:20;;;;;;;13.10;7.38;;;;;;;;;;4931499;28;92507;-80
2023/01/29 02:54:51;;;;;;;13.70;6.97;;;;;;;;;;4947021;28;92988;-79
2023/01/29 02:57:20;;;;;;;12.30;6.65;;;;;;;;;;4946392;28;96066;-79
2023/01/29 03:00:05;;;;;;;12.82;6.60;;;;;;;;;;4946638;28;96251;-80
2023/01/29 03:02:38;;;;;;;13.23;6.35;;;;;;;;;;4930436;28;93859;-79
2023/01/29 03:05:09;;;;;;;13.32;7.15;;;;;;;;;;4944757;28;95762;-80
2023/01/29 03:07:44;;;;;;;14.15;6.90;;;;;;;;;;4941409;28;92485;-79
2023/01/29 03:10:32;;;;;;;12.75;6.13;;;;;;;;;;4942118;28;95085;-80
2023/01/29 03:13:00;;;;;;;12.52;7.15;;;;;;;;;;4944538;28;98874;-80
2023/01/29 03:15:29;;;;;;;13.20;7.20;;;;;;;;;;4946305;28;94270;-79
2023/01/29 03:18:17;;;;;;;12.35;6.30;;;;;;;;;;4945307;28;93140;-80
2023/01/29 03:20:47;;;;;;;13.63;6.45;;;;;;;;;;4938319;28;96056;-79
2023/01/29 03:34:33;;;;;;;11.50;5.65;;;;;;;;;;4926622;28;99737;-79
2023/01/29 03:37:02;;;;;;;11.40;6.20;;;;;;;;;;4919765;28;92955;-79
2023/01/29 03:39:29;;;;;;;11.80;6.40;;;;;;;;;;4922078;28;95334;-79
2023/01/29 03:41:58;;;;;;;13.57;6.50;;;;;;;;;;4945639;28;95262;-78
2023/01/29 03:44:28;;;;;;;12.10;6.25;;;;;;;;;;4930412;28;92975;-82
2023/01/29 03:47:05;;;;;;;12.90;6.65;;;;;;;;;;4944196;28;94092;-81
2023/01/29 03:49:32;;;;;;;12.63;6.78;;;;;;;;;;4945530;28;93706;-81
2023/01/29 03:52:02;;;;;;;11.48;5.97;;;;;;;;;;4928235;28;92523;-81
2023/01/29 03:54:45;;;;;;;11.63;6.68;;;;;;;;;;4945944;28;95519;-81
2023/01/29 03:57:14;;;;;;;14.43;7.07;;;;;;;;;;4946638;28;92021;-81
2023/01/29 03:59:47;;;;;;;12.73;7.00;;;;;;;;;;4945979;28;94376;-80
2023/01/29 04:02:33;;;;;;;13.52;7.20;;;;;;;;;;4947161;28;97538;-81
2023/01/29 04:05:08;;;;;;;11.48;6.15;;;;;;;;;;4942843;28;95074;-81
2023/01/29 04:07:45;;;;;;;16.30;7.47;;;;;;;;;;4935526;28;95310;-81
2023/01/29 04:10:15;;;;;;;11.55;6.22;;;;;;;;;;4930382;28;94912;-81
2023/01/29 04:12:49;;;;;;;11.38;6.35;;;;;;;;;;4949065;28;93028;-80
2023/01/29 04:15:15;;;;;;;14.23;6.78;;;;;;;;;;4947147;28;93073;-82
2023/01/29 04:17:49;;;;;;;14.05;7.50;;;;;;;;;;4946178;28;92791;-79
2023/01/29 04:20:31;;;;;;;14.10;7.30;;;;;;;;;;4931263;28;97659;-82
2023/01/29 04:22:57;;;;;;;14.82;7.80;;;;;;;;;;4946155;28;93302;-81
2023/01/29 04:25:28;;;;;;;15.60;8.63;;;;;;;;;;4945703;28;93293;-79
2023/01/29 04:28:15;;;;;;;16.25;8.50;;;;;;;;;;4945491;28;95766;-79
2023/01/29 04:30:45;;;;;;;14.02;7.47;;;;;;;;;;4943262;28;102634;-81
2023/01/29 04:33:15;;;;;;;13.38;6.70;;;;;;;;;;4931987;28;92421;-81
2023/01/29 04:35:47;;;;;;;15.05;8.10;;;;;;;;;;4928791;28;94105;-82
2023/01/29 04:38:40;;;;;;;16.40;7.85;;;;;;;;;;4924218;28;92667;-79
2023/01/29 04:41:15;;;;;;;13.48;7.50;;;;;;;;;;4892475;28;93960;-79
2023/01/29 04:44:14;;;;;;;13.30;6.93;;;;;;;;;;4907842;28;93895;-80
2023/01/29 04:46:46;;;;;;;14.85;7.97;;;;;;;;;;4907237;28;92830;-79
2023/01/29 04:49:34;;;;;;;14.05;7.57;;;;;;;;;;4939387;28;92897;-80
2023/01/29 04:52:07;;;;;;;14.30;7.55;;;;;;;;;;4909113;28;95927;-79
2023/01/29 04:54:44;;;;;;;13.55;7.28;;;;;;;;;;4926510;28;92662;-80
2023/01/29 04:57:29;;;;;;;14.13;8.25;;;;;;;;;;4913373;28;95511;-80
2023/01/29 05:00:03;;;;;;;12.95;6.97;;;;;;;;;;4925717;28;93146;-80
2023/01/29 05:02:30;;;;;;;15.65;6.80;;;;;;;;;;4930941;28;97641;-79
2023/01/29 05:04:57;;;;;;;13.68;6.57;;;;;;;;;;4950175;28;92904;-79
2023/01/29 05:07:24;;;;;;;12.40;5.95;;;;;;;;;;4942940;28;93168;-80
2023/01/29 05:09:51;;;;;;;10.70;5.28;;;;;;;;;;4954413;28;92469;-80
2023/01/29 05:12:18;;;;;;;10.63;5.53;;;;;;;;;;4954548;28;92532;-79
2023/01/29 05:14:45;;;;;;;10.93;5.70;;;;;;;;;;4961301;28;92454;-79
2023/01/29 05:17:14;;;;;;;10.98;4.82;;;;;;;;;;4957165;28;92445;-79
2023/01/29 05:19:41;;;;;;;10.10;5.38;;;;;;;;;;4962776;28;92567;-79
2023/01/29 05:22:09;;;;;;;10.32;4.70;;;;;;;;;;4968184;28;94860;-79
2023/01/29 05:24:36;;;;;;;11.32;4.22;;;;;;;;;;4965849;28;92378;-79
2023/01/29 05:29:47;;;;;;;8.10;3.90;;;;;;;;;;4965287;28;93286;-79
2023/01/29 05:32:14;;;;;;;8.93;4.05;;;;;;;;;;4955004;28;93276;-79
2023/01/29 05:34:41;;;;;;;8.68;3.97;;;;;;;;;;4939847;28;92831;-79
2023/01/29 05:37:08;;;;;;;8.82;4.55;;;;;;;;;;4935884;28;92814;-81
2023/01/29 05:39:35;;;;;;;9.00;4.05;;;;;;;;;;4934025;28;93987;-80
2023/01/29 05:42:01;;;;;;;7.88;4.10;;;;;;;;;;4932266;28;92456;-79
2023/01/29 05:44:27;;;;;;;8.50;4.03;;;;;;;;;;4934406;28;92868;-79
2023/01/29 05:46:54;;;;;;;7.47;3.58;;;;;;;;;;4931114;28;95291;-80
2023/01/29 05:49:21;;;;;;;8.52;3.75;;;;;;;;;;4935480;28;96072;-80
2023/01/29 05:51:47;;;;;;;7.25;3.30;;;;;;;;;;4922362;28;93324;-80
2023/01/29 05:54:14;;;;;;;7.57;3.65;;;;;;;;;;4930143;28;92528;-80
2023/01/29 05:56:40;;;;;;;9.13;3.80;;;;;;;;;;4931359;28;92824;-80
2023/01/29 05:59:07;;;;;;;7.25;3.28;;;;;;;;;;4920217;28;93213;-80
2023/01/29 06:01:33;;;;;;;6.85;3.33;;;;;;;;;;4929798;28;92830;-80
2023/01/29 06:04:00;;;;;;;7.82;3.38;;;;;;;;;;4933432;28;92657;-79
2023/01/29 06:06:26;;;;;;;10.63;3.38;;;;;;;;;;4927268;28;92466;-80
2023/01/29 06:08:52;;;;;;;7.20;3.28;;;;;;;;;;4929396;28;93580;-79
2023/01/29 06:11:19;;;;;;;8.15;4.05;;;;;;;;;;4928360;28;95443;-79
2023/01/29 06:13:46;;;;;;;8.32;3.70;;;;;;;;;;4942322;28;93216;-81
2023/01/29 06:16:13;;;;;;;7.85;3.60;;;;;;;;;;4949182;28;92970;-79
2023/01/29 06:18:40;;;;;;;10.32;3.95;;;;;;;;;;4937745;28;93197;-80
2023/01/29 06:21:08;;;;;;;7.57;3.15;;;;;;;;;;4929179;28;92604;-80
2023/01/29 06:23:35;;;;;;;8.63;3.50;;;;;;;;;;4917613;28;95915;-81
2023/01/29 06:26:19;;;;;;;8.32;3.65;;;;;;;;;;4944668;28;92990;-80
2023/01/29 06:28:49;;;;;;;10.68;4.72;;;;;;;;;;4948816;28;93706;-80
2023/01/29 06:31:15;;;;;;;8.63;3.58;;;;;;;;;;4948752;28;93088;-81
2023/01/29 06:34:02;;;;;;;7.72;3.60;;;;;;;;;;4936687;28;93161;-81
2023/01/29 06:36:29;;;;;;;8.52;3.55;;;;;;;;;;4947127;28;95359;-81
2023/01/29 06:38:55;;;;;;;8.50;4.03;;;;;;;;;;4935476;28;93209;-81
2023/01/29 06:41:24;;;;;;;7.63;3.67;;;;;;;;;;4946422;28;93207;-80
2023/01/29 06:43:51;;;;;;;6.93;3.30;;;;;;;;;;4948622;28;92908;-81
2023/01/29 06:46:17;;;;;;;7.70;3.58;;;;;;;;;;4948667;28;94182;-81
2023/01/29 06:48:43;;;;;;;8.00;3.65;;;;;;;;;;4952306;28;92538;-81
2023/01/29 06:51:10;;;;;;;8.38;3.45;;;;;;;;;;4941857;28;96150;-80
2023/01/29 06:53:37;;;;;;;7.50;3.50;;;;;;;;;;4944027;28;91884;-81
2023/01/29 06:56:04;;;;;;;11.15;3.70;;;;;;;;;;4934665;28;94945;-80
2023/01/29 06:58:31;;;;;;;7.53;3.60;;;;;;;;;;4948488;28;93107;-80
2023/01/29 07:01:08;;;;;;;8.70;4.05;;;;;;;;;;4947516;28;95148;-81
2023/01/29 07:03:34;;;;;;;7.22;3.47;;;;;;;;;;4946746;28;95202;-80
2023/01/29 07:06:01;;;;;;;9.07;3.70;;;;;;;;;;4947274;28;94253;-80
2023/01/29 07:08:27;;;;;;;7.50;3.45;;;;;;;;;;4941875;28;92531;-81
2023/01/29 07:10:58;;;;;;;9.82;3.67;;;;;;;;;;4948800;28;92703;-80
2023/01/29 07:13:25;;;;;;;8.32;3.33;;;;;;;;;;4952597;28;92701;-80
2023/01/29 07:15:51;;;;;;;9.07;3.67;;;;;;;;;;4930701;28;96074;-80
2023/01/29 07:18:18;;;;;;;8.52;3.97;;;;;;;;;;4946988;28;94662;-80
2023/01/29 07:20:44;;;;;;;7.10;3.40;;;;;;;;;;4947148;28;92909;-80
2023/01/29 07:23:12;;;;;;;6.95;3.40;;;;;;;;;;4940636;28;93249;-80
2023/01/29 07:25:38;;;;;;;7.93;3.10;;;;;;;;;;4946515;28;95481;-80
2023/01/29 07:28:05;;;;;;;7.32;3.50;;;;;;;;;;4947398;28;92713;-80
2023/01/29 07:30:31;;;;;;;10.90;3.75;;;;;;;;;;4948559;28;92967;-80
2023/01/29 07:33:05;;;;;;;8.00;3.78;;;;;;;;;;4955495;28;93155;-80
2023/01/29 07:35:40;;;;;;;8.05;3.58;;;;;;;;;;4948008;28;93126;-80
2023/01/29 07:38:06;;;;;;;;;;;;;;;;;;4947179;28;92970;-81
2023/01/29 07:40:33;;;;;;;6.95;3.15;;;;;;;;;;4947648;28;114702;-80
2023/01/29 07:43:00;;;;;;;8.25;3.20;;;;;;;;;;4948289;28;92677;-81
2023/01/29 07:45:27;;;;;;;8.07;3.83;;;;;;;;;;4947735;28;93142;-80
2023/01/29 07:47:54;;;;;;;8.27;3.25;;;;;;;;;;4947850;28;92931;-80
2023/01/29 07:50:21;;;;;;;8.10;3.80;;;;;;;;;;4927405;28;95442;-80
2023/01/29 07:52:48;;;;;;;7.28;3.15;;;;;;;;;;4936871;28;92991;-80
2023/01/29 07:55:14;;;;;;;8.57;3.67;;;;;;;;;;4948782;28;92649;-80
2023/01/29 07:57:41;;;;;;;8.20;3.42;;;;;;;;;;4947517;28;93607;-81
2023/01/29 08:00:09;;;;;;;7.85;3.63;;;;;;;;;;4946683;28;92999;-80
2023/01/29 08:02:38;;;;;;;8.00;3.65;;;;;;;;;;4947714;28;92552;-80
2023/01/29 08:05:05;;;;;;;7.32;3.33;;;;;;;;;;4939283;28;93661;-80
2023/01/29 08:07:31;;;;;;;8.20;4.28;;;;;;;;;;4935022;28;91887;-80
2023/01/29 08:09:57;;;;;;;7.28;3.75;;;;;;;;;;4947107;28;92637;-79
2023/01/29 08:12:24;;;;;;;8.13;3.38;;;;;;;;;;4947304;28;93047;-80
2023/01/29 08:14:50;;;;;;;8.70;4.00;;;;;;;;;;4947570;28;94997;-80
2023/01/29 08:17:17;;;;;;;8.55;3.58;;;;;;;;;;4947507;28;93035;-81
2023/01/29 08:19:43;;;;;;;8.45;4.10;;;;;;;;;;4947940;28;93130;-80
2023/01/29 08:22:10;;;;;;;10.27;4.00;;;;;;;;;;4947570;28;93166;-79
2023/01/29 08:24:36;;;;;;;9.35;3.95;;;;;;;;;;4947529;28;93111;-79
2023/01/29 08:27:19;;;;;;;9.88;3.83;;;;;;;;;;4947378;28;92653;-79
2023/01/29 08:29:46;;;;;;;8.00;3.40;;;;;;;;;;4946644;28;92897;-78
2023/01/29 08:32:12;;;;;;;11.15;3.60;;;;;;;;;;4945596;28;92559;-78
2023/01/29 08:34:38;;;;;;;10.57;3.60;;;;;;;;;;4946635;28;93743;-78
2023/01/29 08:37:05;;;;;;;10.05;3.63;;;;;;;;;;4947813;28;93192;-79
2023/01/29 08:39:31;;;;;;;9.20;3.80;;;;;;;;;;4932264;28;94878;-78
2023/01/29 08:41:59;;;;;;;7.35;3.42;;;;;;;;;;4924424;28;98115;-78
2023/01/29 08:44:26;;;;;;;9.15;3.67;;;;;;;;;;4926818;28;93158;-78
2023/01/29 08:46:52;;;;;;;7.25;3.33;;;;;;;;;;4926472;28;92504;-78
2023/01/29 08:49:18;;;;;;;8.10;3.50;;;;;;;;;;4933905;28;92817;-78
2023/01/29 08:51:45;;;;;;;8.07;3.38;;;;;;;;;;4920295;28;93252;-78
2023/01/29 08:54:12;;;;;;;7.38;3.40;;;;;;;;;;4928097;28;92535;-78
2023/01/29 08:56:38;;;;;;;7.47;3.50;;;;;;;;;;4925204;28;92815;-79
2023/01/29 08:59:04;;;;;;;7.75;3.55;;;;;;;;;;4939345;28;93341;-78
2023/01/29 09:01:31;;;;;;;8.55;3.40;;;;;;;;;;4940615;28;93787;-78
2023/01/29 09:03:57;;;;;;;7.40;3.38;;;;;;;;;;4927020;28;96006;-76
2023/01/29 09:06:24;;;;;;;6.43;3.17;;;;;;;;;;4935066;28;92670;-78
2023/01/29 09:08:50;;;;;;;6.30;3.15;;;;;;;;;;4930907;28;93089;-79
2023/01/29 09:11:16;;;;;;;9.05;3.08;;;;;;;;;;4928777;28;94373;-79
2023/01/29 09:13:43;;;;;;;6.60;3.20;;;;;;;;;;4929713;28;92513;-79
2023/01/29 09:16:09;;;;;;;6.53;3.08;;;;;;;;;;4936442;28;93189;-79
2023/01/29 09:18:36;;;;;;;7.57;3.33;;;;;;;;;;4931644;28;93503;-78
2023/01/29 09:21:03;;;;;;;6.88;3.30;;;;;;;;;;4937725;28;91781;-78
2023/01/29 09:23:30;;;;;;;;;;;;;;;;;;4929440;28;93326;-78
2023/01/29 09:25:56;;;;;;;6.07;3.13;;;;;;;;;;4930321;28;109851;-78
2023/01/29 09:28:22;;;;;;;7.20;3.25;;;;;;;;;;4936231;28;98503;-78
2023/01/29 09:30:49;;;;;;;9.05;3.70;;;;;;;;;;4940206;28;93109;-79
2023/01/29 09:33:16;;;;;;;7.85;3.03;;;;;;;;;;4945000;28;93004;-79
2023/01/29 09:35:42;;;;;;;7.55;3.30;;;;;;;;;;4945876;28;93062;-79
2023/01/29 09:38:09;;;;;;;7.50;3.33;;;;;;;;;;4934545;28;95468;-80
2023/01/29 09:40:41;;;;;;;8.85;3.67;;;;;;;;;;4949066;28;92944;-80
2023/01/29 09:43:12;;;;;;;6.95;3.40;;;;;;;;;;4952370;28;92831;-81
2023/01/29 09:45:43;;;;;;;7.40;3.22;;;;;;;;;;4949736;28;92364;-80
2023/01/29 09:48:10;;;;;;;6.63;3.25;;;;;;;;;;4941529;28;94275;-80
2023/01/29 09:50:39;;;;;;;9.88;3.70;;;;;;;;;;4941485;28;92365;-83
2023/01/29 09:53:26;;;;;;;6.40;3.17;;;;;;;;;;4947440;28;95245;-82
2023/01/29 09:56:03;;;;;;;6.72;3.05;;;;;;;;;;4953137;28;95511;-82
2023/01/29 09:58:32;;;;;;;7.38;3.22;;;;;;;;;;4951317;28;99083;-83
2023/01/29 10:01:07;;;;;;;8.82;3.15;;;;;;;;;;4950505;28;92779;-82
2023/01/29 10:03:40;;;;;;;6.82;3.10;;;;;;;;;;4948313;28;92813;-82
2023/01/29 10:06:25;;;;;;;8.07;3.60;;;;;;;;;;4940933;28;92783;-80
2023/01/29 10:09:10;;;;;;;10.20;3.17;;;;;;;;;;4944759;28;94000;-80
2023/01/29 10:11:47;;;;;;;7.38;3.40;;;;;;;;;;4944497;28;91802;-82
2023/01/29 10:14:18;;;;;;;7.50;3.42;;;;;;;;;;4928693;28;92894;-80
2023/01/29 10:16:45;;;;;;;7.05;3.65;;;;;;;;;;4940831;28;93593;-78
2023/01/29 10:19:11;;;;;;;8.95;3.83;;;;;;;;;;4933574;28;95438;-79
2023/01/29 10:21:55;;;;;;;8.55;3.60;;;;;;;;;;4930534;28;92964;-80
2023/01/29 10:24:35;;;;;;;7.15;3.60;;;;;;;;;;4945339;28;94099;-79
2023/01/29 10:27:02;;;;;;;7.65;3.70;;;;;;;;;;4940602;28;93787;-80
2023/01/29 10:29:30;;;;;;;7.38;3.03;;;;;;;;;;4941442;28;93057;-79
2023/01/29 10:32:03;;;;;;;6.70;3.30;;;;;;;;;;4929992;28;93074;-80
2023/01/29 10:34:37;;;;;;;7.45;3.88;;;;;;;;;;4940838;28;92885;-79
2023/01/29 10:37:24;;;;;;;7.72;3.85;;;;;;;;;;4931842;28;93296;-80
2023/01/29 10:39:50;;;;;;;6.60;3.50;;;;;;;;;;4936253;28;93227;-80
2023/01/29 10:42:20;;;;;;;6.40;3.13;;;;;;;;;;4945355;28;92823;-79
2023/01/29 10:44:47;;;;;;;7.32;3.90;;;;;;;;;;4945116;28;95401;-79
2023/01/29 10:47:21;;;;;;;6.85;3.58;;;;;;;;;;4945618;28;93786;-79
2023/01/29 10:49:48;;;;;;;8.15;3.38;;;;;;;;;;4943813;28;92746;-79
2023/01/29 10:52:20;;;;;;;9.32;4.13;;;;;;;;;;4946273;28;93706;-78
2023/01/29 10:55:01;;;;;;;7.43;3.70;;;;;;;;;;4937624;28;92917;-79
2023/01/29 10:57:41;;;;;;;7.32;3.80;;;;;;;;;;4948075;28;93018;-79
2023/01/29 11:00:11;;;;;;;6.88;3.65;;;;;;;;;;4927161;28;96238;-79
2023/01/29 11:02:45;;;;;;;7.85;3.67;;;;;;;;;;4943592;28;92152;-78
2023/01/29 11:05:18;;;;;;;7.18;3.50;;;;;;;;;;4937969;28;92936;-79
2023/01/29 11:07:46;;;;;;;6.80;3.70;;;;;;;;;;4942315;28;93067;-79
2023/01/29 11:10:15;;;;;;;8.70;3.90;;;;;;;;;;4945369;28;95167;-79
2023/01/29 11:12:42;;;;;;;7.80;3.22;;;;;;;;;;4944293;28;95275;-79
2023/01/29 11:15:09;;;;;;;;;;;;;;;;;;4947896;28;92485;-80
2023/01/29 11:17:35;;;;;;;6.95;3.50;;;;;;;;;;4946051;28;94595;-79
2023/01/29 11:20:04;;;;;;;7.00;3.05;;;;;;;;;;4935148;28;94497;-79
2023/01/29 11:22:31;;;;;;;6.40;3.30;;;;;;;;;;4946288;28;92834;-79
2023/01/29 11:25:07;;;;;;;7.18;3.30;;;;;;;;;;4928860;28;92957;-79
2023/01/29 11:27:37;;;;;;;6.45;3.25;;;;;;;;;;4928035;28;92400;-79
2023/01/29 11:30:04;;;;;;;8.07;3.55;;;;;;;;;;4927882;28;93081;-79
2023/01/29 11:32:34;;;;;;;6.60;3.42;;;;;;;;;;4936830;28;92870;-79
2023/01/29 11:35:15;;;;;;;6.82;3.90;;;;;;;;;;4916286;28;95217;-79
2023/01/29 11:37:43;;;;;;;6.22;3.17;;;;;;;;;;4921689;28;95182;-80
2023/01/29 11:40:29;;;;;;;6.50;3.47;;;;;;;;;;4913900;28;93474;-80
2023/01/29 11:43:10;;;;;;;6.38;3.25;;;;;;;;;;4926653;28;92818;-80
2023/01/29 11:45:38;;;;;;;7.38;3.80;;;;;;;;;;4925379;28;93091;-79
2023/01/29 11:48:11;;;;;;;8.65;3.72;;;;;;;;;;4926904;28;93137;-80
2023/01/29 11:50:37;;;;;;;;;;;;;;;;;;4938188;28;92761;-80
2023/01/29 11:53:05;;;;;;;7.05;3.50;;;;;;;;;;4952133;28;112726;-80
2023/01/29 11:55:33;;;;;;;8.73;4.05;;;;;;;;;;4943917;28;93178;-80
2023/01/29 11:58:17;;;;;;;8.15;3.50;;;;;;;;;;4948282;28;92766;-80
2023/01/29 12:00:48;;;;;;;6.53;3.33;;;;;;;;;;4945245;28;95558;-80
2023/01/29 12:03:20;;;;;;;5.78;3.25;;;;;;;;;;4944820;28;92568;-79
2023/01/29 12:05:55;;;;;;;7.25;3.65;;;;;;;;;;4939331;28;96163;-79
2023/01/29 12:08:22;;;;;;;6.85;3.35;;;;;;;;;;4945557;28;94106;-79
2023/01/29 12:10:49;;;;;;;6.25;3.20;;;;;;;;;;4947209;28;92654;-80
2023/01/29 12:13:25;;;;;;;6.80;3.50;;;;;;;;;;4946416;28;92795;-80
2023/01/29 12:16:10;;;;;;;7.40;4.15;;;;;;;;;;4947014;28;93389;-80
2023/01/29 12:18:40;;;;;;;6.38;3.75;;;;;;;;;;4936567;28;92987;-80
2023/01/29 12:21:13;;;;;;;7.13;3.88;;;;;;;;;;4929337;28;92688;-80
2023/01/29 12:23:39;;;;;;;6.90;3.40;;;;;;;;;;4934161;28;92554;-80
2023/01/29 12:26:14;;;;;;;7.28;3.53;;;;;;;;;;4944164;28;95269;-79
2023/01/29 12:28:44;;;;;;;6.70;3.47;;;;;;;;;;4934573;28;93659;-79
2023/01/29 12:31:21;;;;;;;6.60;3.80;;;;;;;;;;4944107;28;93886;-80
2023/01/29 12:33:47;;;;;;;7.57;3.58;;;;;;;;;;4941022;28;93688;-80
2023/01/29 12:36:52;;;;;;;7.15;3.63;;;;;;;;;;4928082;28;94262;-80
2023/01/29 12:39:19;;;;;;;6.93;3.47;;;;;;;;;;4904314;28;93422;-80
2023/01/29 12:41:48;;;;;;;6.32;3.47;;;;;;;;;;4936621;28;93843;-81
2023/01/29 12:44:21;;;;;;;6.63;3.42;;;;;;;;;;4931784;28;92318;-80
2023/01/29 12:46:55;;;;;;;6.93;3.67;;;;;;;;;;4941345;28;92606;-80
2023/01/29 12:49:23;;;;;;;6.90;3.72;;;;;;;;;;4928294;28;92969;-80
2023/01/29 12:51:54;;;;;;;7.10;3.63;;;;;;;;;;4928029;28;95573;-80
2023/01/29 12:54:25;;;;;;;7.63;4.22;;;;;;;;;;4944715;28;95437;-80
2023/01/29 12:56:54;;;;;;;6.82;3.97;;;;;;;;;;4944715;28;93408;-80
2023/01/29 12:59:53;;;;;;;7.30;4.30;;;;;;;;;;4952859;28;92738;-82
2023/01/29 13:02:39;;;;;;;8.60;4.55;;;;;;;;;;4921133;28;92774;-82
2023/01/29 13:05:19;;;;;;;7.43;4.10;;;;;;;;;;4955089;28;92354;-81
2023/01/29 13:07:50;;;;;;;7.47;4.20;;;;;;;;;;4945836;28;93092;-81
2023/01/29 13:10:19;;;;;;;7.18;3.70;;;;;;;;;;4936622;28;91935;-81
2023/01/29 13:12:58;;;;;;;8.50;3.92;;;;;;;;;;4938981;28;92795;-79
2023/01/29 13:15:35;;;;;;;6.88;3.78;;;;;;;;;;4930859;28;92974;-81
2023/01/29 13:18:21;;;;;;;6.93;3.75;;;;;;;;;;4927247;28;97146;-79
2023/01/29 13:20:48;;;;;;;9.20;3.90;;;;;;;;;;4928282;28;95013;-79
2023/01/29 13:23:20;;;;;;;7.60;3.78;;;;;;;;;;4926465;28;94068;-80
2023/01/29 13:25:53;;;;;;;6.78;3.72;;;;;;;;;;4928321;28;92916;-81
2023/01/29 13:28:21;;;;;;;7.35;3.97;;;;;;;;;;4941559;28;92606;-81
2023/01/29 13:31:07;;;;;;;7.47;4.07;;;;;;;;;;4930766;28;93345;-82
2023/01/29 13:33:34;;;;;;;8.77;3.42;;;;;;;;;;4930134;28;93103;-80
2023/01/29 13:36:00;;;;;;;7.75;3.78;;;;;;;;;;4933401;28;92694;-80
2023/01/29 13:38:29;;;;;;;7.03;3.90;;;;;;;;;;4936300;28;93123;-79
2023/01/29 13:40:59;;;;;;;8.25;3.80;;;;;;;;;;4937942;28;92934;-80
2023/01/29 13:43:26;;;;;;;8.00;3.83;;;;;;;;;;4931590;28;96605;-80
2023/01/29 13:45:53;;;;;;;7.43;3.60;;;;;;;;;;4948234;28;93903;-77
2023/01/29 13:48:35;;;;;;;8.25;3.90;;;;;;;;;;4945640;28;93015;-78
2023/01/29 13:51:03;;;;;;;7.75;3.90;;;;;;;;;;4941250;28;94114;-79
2023/01/29 13:53:38;;;;;;;8.20;4.45;;;;;;;;;;4932915;28;92846;-79
2023/01/29 13:56:37;;;;;;;8.23;3.88;;;;;;;;;;4937402;28;92989;-78
2023/01/29 13:59:04;;;;;;;8.40;3.47;;;;;;;;;;4922238;28;93111;-80
2023/01/29 14:01:46;;;;;;;7.85;4.30;;;;;;;;;;4943601;28;92284;-80
2023/01/29 14:04:18;;;;;;;8.15;4.00;;;;;;;;;;4948174;28;94495;-79
2023/01/29 14:06:49;;;;;;;7.93;3.65;;;;;;;;;;4949228;28;92934;-79
2023/01/29 14:09:34;;;;;;;7.25;4.10;;;;;;;;;;4947521;28;94886;-79
2023/01/29 14:12:01;;;;;;;8.77;4.07;;;;;;;;;;4947770;28;95382;-79
2023/01/29 14:14:46;;;;;;;11.05;5.60;;;;;;;;;;4950306;28;94209;-80
2023/01/29 14:17:13;;;;;;;8.57;4.50;;;;;;;;;;4945687;28;95044;-80
2023/01/29 14:19:50;;;;;;;8.35;3.83;;;;;;;;;;4950215;28;93585;-80
2023/01/29 14:22:21;;;;;;;7.85;3.30;;;;;;;;;;4948940;28;92767;-79
2023/01/29 14:24:48;;;;;;;7.45;3.40;;;;;;;;;;4948053;28;93877;-79
2023/01/29 14:27:22;;;;;;;9.25;4.15;;;;;;;;;;4948937;28;92030;-80
2023/01/29 14:29:50;;;;;;;7.72;4.05;;;;;;;;;;4926958;28;92939;-80
2023/01/29 14:32:21;;;;;;;6.50;3.53;;;;;;;;;;4945191;28;94869;-79
2023/01/29 14:34:48;;;;;;;7.50;3.60;;;;;;;;;;4946150;28;95591;-79
2023/01/29 14:37:15;;;;;;;8.98;4.00;;;;;;;;;;4950404;28;93080;-79
2023/01/29 14:39:42;;;;;;;8.25;3.75;;;;;;;;;;4944833;28;93101;-79
2023/01/29 14:42:18;;;;;;;7.53;3.80;;;;;;;;;;4946279;28;92504;-81
2023/01/29 14:44:47;;;;;;;9.23;3.88;;;;;;;;;;4940268;28;93127;-80
2023/01/29 14:47:17;;;;;;;7.22;3.60;;;;;;;;;;4947429;28;92948;-79
2023/01/29 14:49:54;;;;;;;8.10;3.83;;;;;;;;;;4947758;28;92685;-79
2023/01/29 14:52:24;;;;;;;7.68;4.10;;;;;;;;;;4944944;28;92991;-79
2023/01/29 14:54:51;;;;;;;6.97;3.63;;;;;;;;;;4940262;28;93096;-79
2023/01/29 14:57:18;;;;;;;8.43;4.30;;;;;;;;;;4951911;28;92810;-79
2023/01/29 14:59:53;;;;;;;7.90;3.85;;;;;;;;;;4940690;28;96722;-79
2023/01/29 15:02:25;;;;;;;7.15;3.90;;;;;;;;;;4944844;28;92525;-79
2023/01/29 15:04:53;;;;;;;7.88;4.05;;;;;;;;;;4948231;28;92575;-78
2023/01/29 15:07:33;;;;;;;7.28;3.80;;;;;;;;;;4938593;28;93504;-79
2023/01/29 15:10:07;;;;;;;8.00;3.75;;;;;;;;;;4948317;28;92435;-79
2023/01/29 15:12:50;;;;;;;8.73;3.90;;;;;;;;;;4946844;28;92830;-79
2023/01/29 15:15:35;;;;;;;8.68;3.70;;;;;;;;;;4937317;28;93338;-78
2023/01/29 15:18:04;;;;;;;7.63;3.60;;;;;;;;;;4928062;28;92397;-78
2023/01/29 15:20:32;;;;;;;8.98;3.33;;;;;;;;;;4930866;28;92932;-79
2023/01/29 15:23:01;;;;;;;26.98;4.13;;;;;;;;;;4929302;28;93234;-82
2023/01/29 15:25:46;;;;;;;15.02;3.97;;;;;;;;;;4940977;28;95006;-82
2023/01/29 15:28:13;;;;;;;12.32;3.75;;;;;;;;;;4931216;28;93634;-81
2023/01/29 15:30:42;;;;;;;14.07;3.88;;;;;;;;;;4944104;28;93981;-81
2023/01/29 15:33:10;;;;;;;11.57;3.45;;;;;;;;;;4945719;28;92759;-80